SAS7H ENVA-ENGM
Flight info
| Callsign | SAS7H |
|---|---|
| Flight time | 0h 50m |
| Altitude | 27000 |
| Route | UTUNA DCT TUTBI DCT BELGU |
| Aircraft | A320/M-SDE3FGHIRWY/LB1 |
Departure
| Time | 2026-04-30 20:51 |
|---|---|
| Airport | Trondheim Airport, Værnes (ENVA) |
Arrival
| Time | 2026-04-30 21:41 |
|---|---|
| Airport | Oslo-Gardermoen International Airport (ENGM) |
| Time | Latitude | Longitude | Altitude | Speed | Heading |
|---|---|---|---|---|---|
| 2026-04-30 20:30 | 63.45498 | 10.91744 | 39 ft | 0 kts | 180° |
| 2026-04-30 20:38 | 63.45506 | 10.91745 | 39 ft | 4 kts | 180° |
| 2026-04-30 20:39 | 63.45536 | 10.91745 | 38 ft | 0 kts | 180° |
| 2026-04-30 20:42 | 63.45551 | 10.91808 | 39 ft | 5 kts | 49° |
| 2026-04-30 20:43 | 63.45579 | 10.91869 | 39 ft | 6 kts | 40° |
| 2026-04-30 20:43 | 63.45595 | 10.91953 | 40 ft | 7 kts | 88° |
| 2026-04-30 20:43 | 63.45595 | 10.92072 | 40 ft | 9 kts | 90° |
| 2026-04-30 20:44 | 63.45594 | 10.92268 | 41 ft | 0 kts | 90° |
| 2026-04-30 20:45 | 63.45594 | 10.92269 | 41 ft | 0 kts | 90° |
| 2026-04-30 20:45 | 63.45594 | 10.92285 | 41 ft | 2 kts | 89° |
| 2026-04-30 20:46 | 63.45593 | 10.92748 | 45 ft | 17 kts | 90° |
| 2026-04-30 20:46 | 63.45593 | 10.93019 | 49 ft | 18 kts | 90° |
| 2026-04-30 20:47 | 63.45592 | 10.93567 | 54 ft | 18 kts | 90° |
| 2026-04-30 20:47 | 63.45603 | 10.93838 | 57 ft | 18 kts | 66° |
| 2026-04-30 20:48 | 63.45760 | 10.94038 | 60 ft | 13 kts | 281° |
| 2026-04-30 20:48 | 63.45759 | 10.93985 | 59 ft | 0 kts | 267° |
| 2026-04-30 20:50 | 63.45759 | 10.93971 | 59 ft | 8 kts | 267° |
| 2026-04-30 20:50 | 63.45757 | 10.93301 | 52 ft | 79 kts | 270° |
| 2026-04-30 20:50 | 63.45761 | 10.91656 | 38 ft | 133 kts | 270° |
| 2026-04-30 20:50 | 63.45763 | 10.89281 | 182 ft | 161 kts | 271° |
| 2026-04-30 20:51 | 63.45778 | 10.86773 | 767 ft | 162 kts | 271° |
| 2026-04-30 20:51 | 63.45804 | 10.81549 | 1733 ft | 182 kts | 271° |
| 2026-04-30 20:51 | 63.45805 | 10.78587 | 2080 ft | 200 kts | 272° |
| 2026-04-30 20:52 | 63.45814 | 10.75267 | 2419 ft | 221 kts | 271° |
| 2026-04-30 20:52 | 63.45818 | 10.71850 | 3317 ft | 219 kts | 271° |
| 2026-04-30 20:52 | 63.45827 | 10.64989 | 4968 ft | 222 kts | 270° |
| 2026-04-30 20:53 | 63.45832 | 10.62664 | 5577 ft | 220 kts | 269° |
| 2026-04-30 20:53 | 63.45831 | 10.59291 | 6573 ft | 215 kts | 267° |
| 2026-04-30 20:53 | 63.45696 | 10.55982 | 7392 ft | 216 kts | 252° |
| 2026-04-30 20:54 | 63.43284 | 10.51426 | 8315 ft | 267 kts | 191° |
| 2026-04-30 20:54 | 63.41384 | 10.51421 | 9027 ft | 277 kts | 184° |
| 2026-04-30 20:54 | 63.39445 | 10.51605 | 9820 ft | 281 kts | 184° |
| 2026-04-30 20:55 | 63.35368 | 10.52046 | 10707 ft | 313 kts | 183° |
| 2026-04-30 20:55 | 63.33115 | 10.52273 | 10931 ft | 334 kts | 183° |
| 2026-04-30 20:55 | 63.30768 | 10.52520 | 11500 ft | 342 kts | 183° |
| 2026-04-30 20:56 | 63.25966 | 10.53035 | 12830 ft | 349 kts | 183° |
| 2026-04-30 20:56 | 63.23522 | 10.53287 | 13494 ft | 353 kts | 184° |
| 2026-04-30 20:56 | 63.18563 | 10.53775 | 14786 ft | 360 kts | 184° |
| 2026-04-30 20:57 | 63.16052 | 10.54019 | 15380 ft | 363 kts | 184° |
| 2026-04-30 20:57 | 63.13519 | 10.54266 | 15971 ft | 365 kts | 184° |
| 2026-04-30 20:57 | 63.10971 | 10.54516 | 16566 ft | 368 kts | 184° |
| 2026-04-30 20:58 | 63.05820 | 10.55010 | 17750 ft | 374 kts | 184° |
| 2026-04-30 20:58 | 63.03211 | 10.55259 | 18368 ft | 377 kts | 184° |
| 2026-04-30 20:58 | 63.00615 | 10.55506 | 18913 ft | 380 kts | 184° |
| 2026-04-30 20:58 | 62.97962 | 10.55758 | 19461 ft | 384 kts | 184° |
| 2026-04-30 20:59 | 62.92571 | 10.56255 | 20547 ft | 390 kts | 184° |
| 2026-04-30 20:59 | 62.89844 | 10.56510 | 21075 ft | 394 kts | 184° |
| 2026-04-30 21:00 | 62.84315 | 10.57023 | 22088 ft | 401 kts | 184° |
| 2026-04-30 21:00 | 62.78679 | 10.57548 | 23043 ft | 408 kts | 184° |
| 2026-04-30 21:01 | 62.72954 | 10.58095 | 23962 ft | 415 kts | 184° |
| 2026-04-30 21:01 | 62.70062 | 10.58369 | 24352 ft | 418 kts | 184° |
| 2026-04-30 21:01 | 62.64217 | 10.58911 | 25110 ft | 422 kts | 184° |
| 2026-04-30 21:02 | 62.61272 | 10.59182 | 25467 ft | 425 kts | 184° |
| 2026-04-30 21:02 | 62.58309 | 10.59455 | 25836 ft | 427 kts | 184° |
| 2026-04-30 21:02 | 62.55333 | 10.59725 | 26193 ft | 429 kts | 184° |
| 2026-04-30 21:02 | 62.52346 | 10.59999 | 26546 ft | 431 kts | 184° |
| 2026-04-30 21:03 | 62.49337 | 10.60282 | 26899 ft | 434 kts | 184° |
| 2026-04-30 21:03 | 62.46316 | 10.60564 | 27208 ft | 436 kts | 184° |
| 2026-04-30 21:03 | 62.43280 | 10.60848 | 27332 ft | 435 kts | 184° |
| 2026-04-30 21:03 | 62.40258 | 10.61145 | 27280 ft | 434 kts | 183° |
| 2026-04-30 21:04 | 62.37243 | 10.61640 | 27295 ft | 436 kts | 181° |
| 2026-04-30 21:04 | 62.34226 | 10.62352 | 27296 ft | 437 kts | 179° |
| 2026-04-30 21:04 | 62.28192 | 10.64090 | 27288 ft | 438 kts | 178° |
| 2026-04-30 21:05 | 62.25171 | 10.64976 | 27288 ft | 438 kts | 178° |
| 2026-04-30 21:05 | 62.22148 | 10.65829 | 27296 ft | 438 kts | 179° |
| 2026-04-30 21:05 | 62.19121 | 10.66638 | 27296 ft | 438 kts | 179° |
| 2026-04-30 21:05 | 62.16094 | 10.67409 | 27291 ft | 438 kts | 179° |
| 2026-04-30 21:06 | 62.13071 | 10.68165 | 27292 ft | 438 kts | 179° |
| 2026-04-30 21:06 | 62.10048 | 10.68915 | 27288 ft | 438 kts | 179° |
| 2026-04-30 21:06 | 62.07018 | 10.69670 | 27287 ft | 438 kts | 179° |
| 2026-04-30 21:06 | 62.03998 | 10.70433 | 27277 ft | 437 kts | 179° |
| 2026-04-30 21:07 | 62.00972 | 10.71202 | 27278 ft | 438 kts | 179° |
| 2026-04-30 21:07 | 61.97948 | 10.71972 | 27275 ft | 438 kts | 179° |
| 2026-04-30 21:07 | 61.94920 | 10.72747 | 27279 ft | 438 kts | 179° |
| 2026-04-30 21:07 | 61.91889 | 10.73516 | 27284 ft | 439 kts | 179° |
| 2026-04-30 21:08 | 61.88855 | 10.74283 | 27280 ft | 439 kts | 179° |
| 2026-04-30 21:08 | 61.85823 | 10.75047 | 27277 ft | 439 kts | 179° |
| 2026-04-30 21:08 | 61.82785 | 10.75805 | 27280 ft | 439 kts | 179° |
| 2026-04-30 21:08 | 61.79747 | 10.76561 | 27291 ft | 439 kts | 179° |
| 2026-04-30 21:09 | 61.76707 | 10.77317 | 27291 ft | 439 kts | 179° |
| 2026-04-30 21:09 | 61.73671 | 10.78066 | 27288 ft | 439 kts | 179° |
| 2026-04-30 21:09 | 61.70635 | 10.78814 | 27290 ft | 439 kts | 179° |
| 2026-04-30 21:09 | 61.67598 | 10.79571 | 27289 ft | 440 kts | 179° |
| 2026-04-30 21:10 | 61.64558 | 10.80327 | 27289 ft | 440 kts | 179° |
| 2026-04-30 21:10 | 61.61567 | 10.81070 | 27122 ft | 435 kts | 179° |
| 2026-04-30 21:10 | 61.58581 | 10.81817 | 26583 ft | 430 kts | 179° |
| 2026-04-30 21:10 | 61.55578 | 10.82561 | 26015 ft | 427 kts | 179° |
| 2026-04-30 21:11 | 61.52679 | 10.83273 | 25485 ft | 423 kts | 179° |
| 2026-04-30 21:11 | 61.49757 | 10.83987 | 24950 ft | 421 kts | 179° |
| 2026-04-30 21:11 | 61.46858 | 10.84695 | 24428 ft | 418 kts | 179° |
| 2026-04-30 21:11 | 61.43977 | 10.85397 | 23916 ft | 416 kts | 179° |
| 2026-04-30 21:12 | 61.41111 | 10.86095 | 23365 ft | 413 kts | 179° |
| 2026-04-30 21:12 | 61.38274 | 10.86788 | 22877 ft | 409 kts | 179° |
| 2026-04-30 21:12 | 61.35463 | 10.87470 | 22398 ft | 405 kts | 179° |
| 2026-04-30 21:12 | 61.32668 | 10.88145 | 21914 ft | 402 kts | 179° |
| 2026-04-30 21:13 | 61.29898 | 10.88815 | 21444 ft | 400 kts | 179° |
| 2026-04-30 21:13 | 61.27140 | 10.89481 | 20967 ft | 398 kts | 179° |
| 2026-04-30 21:13 | 61.24397 | 10.90142 | 20476 ft | 396 kts | 179° |
| 2026-04-30 21:13 | 61.21661 | 10.90801 | 19980 ft | 395 kts | 179° |
| 2026-04-30 21:14 | 61.18935 | 10.91455 | 19474 ft | 394 kts | 179° |
| 2026-04-30 21:14 | 61.16214 | 10.92109 | 18963 ft | 393 kts | 179° |
| 2026-04-30 21:14 | 61.13504 | 10.92766 | 18380 ft | 392 kts | 178° |
| 2026-04-30 21:14 | 61.10779 | 10.93577 | 17490 ft | 394 kts | 176° |
| 2026-04-30 21:15 | 61.08128 | 10.94563 | 16930 ft | 377 kts | 174° |
| 2026-04-30 21:15 | 61.05616 | 10.95609 | 16476 ft | 360 kts | 174° |
| 2026-04-30 21:15 | 61.03198 | 10.96630 | 15998 ft | 352 kts | 174° |
| 2026-04-30 21:15 | 61.00794 | 10.97611 | 15497 ft | 352 kts | 174° |
| 2026-04-30 21:16 | 60.98391 | 10.98557 | 15002 ft | 351 kts | 175° |
| 2026-04-30 21:16 | 60.95993 | 10.99476 | 14514 ft | 350 kts | 175° |
| 2026-04-30 21:16 | 60.93600 | 11.00385 | 14018 ft | 349 kts | 175° |
| 2026-04-30 21:16 | 60.91211 | 11.01283 | 13488 ft | 348 kts | 175° |
| 2026-04-30 21:17 | 60.88837 | 11.02172 | 12998 ft | 346 kts | 174° |
| 2026-04-30 21:17 | 60.86479 | 11.03061 | 12509 ft | 343 kts | 174° |
| 2026-04-30 21:17 | 60.84143 | 11.03948 | 12021 ft | 341 kts | 174° |
| 2026-04-30 21:17 | 60.81819 | 11.04832 | 11650 ft | 335 kts | 174° |
| 2026-04-30 21:18 | 60.79573 | 11.05689 | 11337 ft | 321 kts | 174° |
| 2026-04-30 21:18 | 60.77396 | 11.06515 | 10771 ft | 316 kts | 174° |
| 2026-04-30 21:18 | 60.75230 | 11.07324 | 10661 ft | 318 kts | 174° |
| 2026-04-30 21:18 | 60.73050 | 11.08130 | 10327 ft | 319 kts | 174° |
| 2026-04-30 21:19 | 60.70905 | 11.08932 | 10099 ft | 305 kts | 174° |
| 2026-04-30 21:19 | 60.68868 | 11.09706 | 9729 ft | 292 kts | 174° |
| 2026-04-30 21:19 | 60.66875 | 11.10457 | 9359 ft | 296 kts | 174° |
| 2026-04-30 21:19 | 60.64853 | 11.11213 | 8961 ft | 292 kts | 174° |
| 2026-04-30 21:20 | 60.62846 | 11.11964 | 8368 ft | 293 kts | 173° |
| 2026-04-30 21:20 | 60.60860 | 11.12701 | 7915 ft | 290 kts | 173° |
| 2026-04-30 21:20 | 60.58876 | 11.13435 | 7460 ft | 286 kts | 173° |
| 2026-04-30 21:20 | 60.56906 | 11.14166 | 6850 ft | 291 kts | 173° |
| 2026-04-30 21:21 | 60.54912 | 11.14903 | 6288 ft | 291 kts | 173° |
| 2026-04-30 21:21 | 60.52932 | 11.15634 | 5762 ft | 286 kts | 173° |
| 2026-04-30 21:21 | 60.49139 | 11.17045 | 4937 ft | 265 kts | 172° |
| 2026-04-30 21:22 | 60.47401 | 11.17692 | 4880 ft | 245 kts | 173° |
| 2026-04-30 21:22 | 60.42646 | 11.19463 | 4618 ft | 221 kts | 172° |
| 2026-04-30 21:23 | 60.41136 | 11.19988 | 4523 ft | 219 kts | 179° |
| 2026-04-30 21:23 | 60.39660 | 11.19674 | 4334 ft | 210 kts | 200° |
| 2026-04-30 21:23 | 60.36934 | 11.18074 | 3806 ft | 199 kts | 199° |
| 2026-04-30 21:24 | 60.35621 | 11.17307 | 3558 ft | 194 kts | 199° |
| 2026-04-30 21:24 | 60.34333 | 11.16556 | 3304 ft | 191 kts | 199° |
| 2026-04-30 21:24 | 60.33070 | 11.15820 | 3053 ft | 188 kts | 199° |
| 2026-04-30 21:24 | 60.31822 | 11.15094 | 2802 ft | 185 kts | 199° |
| 2026-04-30 21:25 | 60.29416 | 11.13695 | 2324 ft | 174 kts | 199° |
| 2026-04-30 21:25 | 60.28293 | 11.13045 | 2104 ft | 160 kts | 199° |
| 2026-04-30 21:25 | 60.27268 | 11.12454 | 1893 ft | 148 kts | 198° |
| 2026-04-30 21:26 | 60.25353 | 11.11334 | 1493 ft | 140 kts | 197° |
| 2026-04-30 21:26 | 60.24424 | 11.10787 | 1326 ft | 138 kts | 195° |
| 2026-04-30 21:27 | 60.22601 | 11.09734 | 952 ft | 135 kts | 194° |
| 2026-04-30 21:27 | 60.21702 | 11.09215 | 771 ft | 134 kts | 195° |
| 2026-04-30 21:27 | 60.20829 | 11.08719 | 691 ft | 119 kts | 195° |
| 2026-04-30 21:28 | 60.19114 | 11.07789 | 1738 ft | 106 kts | 197° |
| 2026-04-30 21:28 | 60.18277 | 11.07337 | 1766 ft | 146 kts | 197° |
| 2026-04-30 21:28 | 60.16584 | 11.06226 | 3176 ft | 121 kts | 215° |
| 2026-04-30 21:29 | 60.16076 | 11.05626 | 3340 ft | 134 kts | 217° |
| 2026-04-30 21:29 | 60.13889 | 11.01700 | 4127 ft | 154 kts | 239° |
| 2026-04-30 21:30 | 60.12480 | 10.98211 | 4877 ft | 171 kts | 232° |
| 2026-04-30 21:31 | 60.12423 | 10.90918 | 4999 ft | 215 kts | 320° |
| 2026-04-30 21:31 | 60.15635 | 10.90189 | 5021 ft | 269 kts | 12° |
| 2026-04-30 21:32 | 60.19277 | 10.92477 | 5013 ft | 274 kts | 15° |
| 2026-04-30 21:32 | 60.21085 | 10.93665 | 5013 ft | 274 kts | 15° |
| 2026-04-30 21:32 | 60.22901 | 10.94862 | 5014 ft | 274 kts | 15° |
| 2026-04-30 21:32 | 60.24713 | 10.96058 | 5010 ft | 274 kts | 15° |
| 2026-04-30 21:33 | 60.26484 | 10.97241 | 5009 ft | 261 kts | 15° |
| 2026-04-30 21:33 | 60.29767 | 10.99459 | 5011 ft | 243 kts | 15° |
| 2026-04-30 21:33 | 60.31365 | 11.00550 | 5013 ft | 242 kts | 15° |
| 2026-04-30 21:34 | 60.32960 | 11.01637 | 5009 ft | 242 kts | 15° |
| 2026-04-30 21:34 | 60.36134 | 11.03803 | 5011 ft | 242 kts | 15° |
| 2026-04-30 21:34 | 60.37727 | 11.04892 | 5011 ft | 242 kts | 15° |
| 2026-04-30 21:35 | 60.39325 | 11.05986 | 5009 ft | 242 kts | 15° |
| 2026-04-30 21:35 | 60.40911 | 11.07074 | 5003 ft | 238 kts | 15° |
| 2026-04-30 21:35 | 60.42347 | 11.08554 | 4931 ft | 230 kts | 41° |
| 2026-04-30 21:35 | 60.43179 | 11.11237 | 4757 ft | 228 kts | 75° |
| 2026-04-30 21:36 | 60.43159 | 11.14392 | 4462 ft | 226 kts | 110° |
| 2026-04-30 21:36 | 60.42294 | 11.16951 | 4148 ft | 220 kts | 147° |
| 2026-04-30 21:37 | 60.38035 | 11.18727 | 3957 ft | 208 kts | 199° |
| 2026-04-30 21:37 | 60.36676 | 11.17934 | 3788 ft | 199 kts | 200° |
| 2026-04-30 21:37 | 60.35359 | 11.17157 | 3514 ft | 196 kts | 200° |
| 2026-04-30 21:37 | 60.34059 | 11.16396 | 3250 ft | 193 kts | 199° |
| 2026-04-30 21:38 | 60.32785 | 11.15653 | 2990 ft | 189 kts | 199° |
| 2026-04-30 21:38 | 60.31532 | 11.14925 | 2747 ft | 185 kts | 200° |
| 2026-04-30 21:38 | 60.30310 | 11.14214 | 2501 ft | 180 kts | 199° |
| 2026-04-30 21:38 | 60.29146 | 11.13539 | 2290 ft | 167 kts | 199° |
| 2026-04-30 21:39 | 60.28091 | 11.12928 | 2059 ft | 150 kts | 199° |
| 2026-04-30 21:39 | 60.27110 | 11.12352 | 1859 ft | 144 kts | 199° |
| 2026-04-30 21:39 | 60.26160 | 11.11798 | 1673 ft | 141 kts | 199° |
| 2026-04-30 21:39 | 60.25225 | 11.11248 | 1464 ft | 138 kts | 197° |
| 2026-04-30 21:40 | 60.24305 | 11.10722 | 1290 ft | 137 kts | 195° |
| 2026-04-30 21:40 | 60.23394 | 11.10198 | 1099 ft | 135 kts | 196° |
| 2026-04-30 21:40 | 60.22491 | 11.09670 | 907 ft | 135 kts | 196° |
| 2026-04-30 21:40 | 60.21587 | 11.09153 | 737 ft | 135 kts | 195° |
| 2026-04-30 21:41 | 60.20742 | 11.08666 | 678 ft | 109 kts | 194° |
| 2026-04-30 21:41 | 60.20178 | 11.08340 | 676 ft | 55 kts | 197° |
| 2026-04-30 21:41 | 60.19955 | 11.08320 | 675 ft | 20 kts | 159° |
| 2026-04-30 21:41 | 60.19890 | 11.08454 | 674 ft | 11 kts | 109° |
| 2026-04-30 21:42 | 60.19857 | 11.08545 | 678 ft | 8 kts | 166° |
| 2026-04-30 21:42 | 60.19796 | 11.08515 | 677 ft | 11 kts | 196° |